Latest Coastal Weather Observations for Cape Grim

IDV60701

Issued at 2:11 pm EDT Friday 20 October 2017 (issued every 10 minutes, with the page automatically refreshed every 10 minutes)

About coastal observations | Map of coastal stations | Coastal observations for VIC | Marine services | Other Formats
Station Details ID: 091331 Name: CAPE GRIM Lat: -40.68 Lon: 144.69 Height: 86.0 m
Data from the previous 72 hours. | See also: Recent months at Cape Grim
Date/Time
EDT
Temp
°C
Wind Pressure Rain since
9am
mm
Weather Cloud Vis
km
Sea
Height
m
Swell
Dir  Spd
kts
Gust
kts
hPa Trend Height
m
Period
s
Dir
20/02:00pm 11.7 SW 22 30 1026.9 - 0.0 - Partly cloudy - - - - -
20/01:30pm 11.4 SW 23 31 1026.7 - 0.0 - Partly cloudy - - - - -
20/01:12pm 11.4 SW 21 31 1026.7 - 0.0 - Partly cloudy - - - - -
20/01:00pm 11.4 SW 24 31 1026.6 - 0.0 - Partly cloudy - - - - -
20/12:30pm 11.4 SW 21 34 1026.4 - 0.0 - Partly cloudy - - - - -
20/12:12pm 11.4 SW 21 31 1026.2 - 0.0 - Partly cloudy - - - - -
20/12:00pm 11.8 SW 22 31 1026.2 - 0.0 - Mostly clear - - - - -
20/11:30am 11.5 SW 20 35 1026.0 - 0.0 - Partly cloudy - - - - -
20/11:00am 11.3 SW 22 33 1025.7 - 0.0 - Cloudy - - - - -
20/10:30am 11.4 SW 23 33 1025.6 - 0.0 - Partly cloudy - - - - -
20/10:25am 11.2 SW 23 33 1025.5 - 0.0 - Cloudy - - - - -
20/10:00am 11.1 SW 28 35 1025.3 - 0.0 - Cloudy - - - - -
20/09:34am 10.8 SW 27 38 1024.7 - 0.0 - Partly cloudy - - - - -
20/09:30am 10.8 SW 26 34 1024.7 - 0.0 - Partly cloudy - - - - -
20/09:00am 10.8 SW 31 38 1024.3 - 2.4 - Cloudy - - - - -
20/08:36am 10.6 SW 26 36 1024.0 - 2.4 - Partly cloudy - - - - -
20/08:30am 10.7 SW 28 37 1024.0 - 2.4 - Cloudy - - - - -
20/08:01am 10.8 SW 28 38 1023.4 - 2.4 - Partly cloudy - - - - -
20/08:00am 10.9 SW 28 37 1023.3 - 2.4 - Partly cloudy - - - - -
20/07:49am 10.6 SW 28 38 1023.2 - 2.4 - Partly cloudy - - - - -
20/07:30am 10.7 SW 31 38 1022.8 - 2.4 - Partly cloudy - - - - -
20/07:12am 10.8 SW 27 37 1022.4 - 2.4 - Partly cloudy - - - - -
20/07:00am 10.6 SW 31 38 1022.3 - 2.4 - Partly cloudy - - - - -
20/06:53am 10.5 SW 29 39 1022.2 - 2.4 - Partly cloudy - - - - -
20/06:30am 10.5 SW 31 39 1021.7 - 2.4 - Partly cloudy - - - - -
20/06:00am 11.0 SW 26 37 1021.1 - 2.4 - Mostly clear - - - - -
20/05:30am 11.0 SW 23 35 1020.6 - 2.4 - Partly cloudy - - - - -
20/05:00am 11.0 SW 23 39 1020.2 - 2.4 - Partly cloudy - - - - -
20/04:30am 10.3 WSW 18 30 1020.2 - 2.4 - Partly cloudy - - - - -
20/04:11am 10.5 WSW 22 43 1019.8 - 2.0 - Partly cloudy - - - - -
20/04:00am 11.4 W 20 31 1019.9 - 2.0 - Partly cloudy - - - - -
20/03:30am 11.5 WSW 20 33 1019.8 - 2.0 - Partly cloudy - - - - -
20/03:00am 11.4 W 23 35 1019.6 - 2.0 - Mostly clear - - - - -
20/02:30am 11.5 W 22 34 1019.6 - 2.0 - - - - - - -
20/02:00am 11.5 WSW 20 31 1019.6 - 2.0 - Partly cloudy - - - - -
20/01:35am 11.6 W 19 29 1019.6 - 2.0 - - - - - - -
20/01:30am 11.6 W 19 28 1019.5 - 2.0 - - - - - - -
20/01:00am 11.7 W 22 32 1019.4 - 2.0 - Partly cloudy - - - - -
20/12:30am 11.7 W 22 37 1019.2 - 2.0 - Partly cloudy - - - - -
20/12:00am 11.3 W 22 32 1018.9 - 2.0 Recent precip. Partly cloudy - - - - -
 
Date/Time
EDT
Temp
°C
Wind Pressure Rain since
9am
mm
Weather Cloud Vis
km
Sea
Height
m
Swell
Dir  Spd
kts
Gust
kts
hPa Trend Height
m
Period
s
Dir
19/11:37pm 11.3 W 22 35 1018.9 - 1.6 - Partly cloudy - - - - -
19/11:30pm 12.3 W 21 28 1018.8 - 1.6 - Partly cloudy - - - - -
19/11:00pm 12.3 W 20 30 1019.0 - 1.6 - Partly cloudy - - - - -
19/10:36pm 12.3 W 21 31 1019.1 - 1.6 - Partly cloudy - - - - -
19/10:30pm 12.3 W 22 31 1019.0 - 1.6 - Partly cloudy - - - - -
19/10:00pm 12.5 W 21 28 1019.1 - 1.6 - Partly cloudy - - - - -
19/09:30pm 12.5 W 17 26 1018.6 - 1.6 - - - - - - -
19/09:00pm 12.4 W 17 23 1018.3 - 1.6 - Partly cloudy - - - - -
19/08:50pm 12.4 W 16 26 1018.2 - 1.6 - Partly cloudy - - - - -
19/08:30pm 12.4 W 17 23 1017.8 - 1.6 - Partly cloudy - - - - -
19/08:04pm 12.3 W 16 26 1017.6 - 1.6 - Partly cloudy - - - - -
19/08:00pm 12.3 W 16 24 1017.5 - 1.6 - Partly cloudy - - - - -
19/07:30pm 12.3 W 17 25 1017.4 - 1.6 - Partly cloudy - - - - -
19/07:00pm 12.6 W 16 28 1016.8 - 1.6 - - - - - - -
19/06:32pm 12.7 WSW 15 25 1016.4 - 1.6 - Partly cloudy - - - - -
19/06:30pm 12.7 W 16 25 1016.5 - 1.6 - Partly cloudy - - - - -
19/06:11pm 12.8 WSW 15 25 1016.3 - 1.6 - Partly cloudy - - - - -
19/06:00pm 13.0 W 14 27 1016.1 - 1.6 - - - - - - -
19/05:36pm 12.8 WSW 15 25 1015.9 - 1.6 - Partly cloudy - - - - -
19/05:30pm 12.8 WSW 14 25 1015.9 - 1.6 - Partly cloudy - - - - -
19/05:03pm 12.9 WSW 15 27 1015.7 - 1.6 - Partly cloudy - - - - -
19/05:00pm 13.0 WSW 14 23 1015.7 - 1.6 - Partly cloudy - - - - -
19/04:30pm 12.9 WSW 16 30 1015.2 - 1.6 - Cloudy - - - - -
19/04:12pm 12.7 W 15 28 1014.8 - 1.6 - Partly cloudy - - - - -
19/04:04pm 13.0 WSW 14 26 1014.6 - 1.6 - Partly cloudy - - - - -
19/04:00pm 12.9 WSW 14 26 1014.6 - 1.6 - Partly cloudy - - - - -
19/03:44pm 13.2 W 15 25 1014.4 - 1.6 - Partly cloudy - - - - -
19/03:30pm 13.7 WSW 11 19 1014.4 - 1.6 - Partly cloudy - - - - -
19/03:00pm 13.1 SW 12 17 1014.1 - 1.6 Recent precip. Cloudy - - - - -
19/02:30pm 13.0 WSW 14 23 1013.8 - 1.4 - Cloudy - - - - -
19/02:04pm 13.1 W 17 26 1013.3 - 1.4 - Cloudy - - - - -
19/02:00pm 13.6 W 19 26 1013.3 - 1.4 - Cloudy - - - - -
19/01:30pm 14.8 NW 19 26 1013.0 - 1.4 - Cloudy - - - - -
19/01:00pm 14.7 NW 17 22 1012.9 - 1.4 - Partly cloudy - - - - -
19/12:30pm 14.7 NNW 17 21 1012.7 - 1.4 - Cloudy - - - - -
19/12:00pm 15.0 N 18 23 1013.0 - 1.4 - Cloudy - - - - -
19/11:30am 15.3 N 19 25 1013.2 - 1.4 - Partly cloudy - - - - -
19/11:19am 15.6 N 18 23 1013.0 - 1.4 - Partly cloudy - - - - -
19/11:00am 15.8 N 14 18 1012.9 - 1.4 - Partly cloudy - - - - -
19/10:58am 15.7 N 14 18 1012.9 - 1.2 - Partly cloudy - - - - -
19/10:30am 15.5 N 13 16 1013.0 - 1.2 - Partly cloudy - - - - -
19/10:26am 15.5 N 12 15 1013.0 - 0.8 - Partly cloudy - - - - -
19/10:01am 15.9 N 11 13 1013.0 - 0.8 - Partly cloudy - - - - -
19/10:00am 15.9 N 11 13 1013.0 - 0.8 - Partly cloudy - - - - -
19/09:51am 16.1 N 10 13 1013.0 - 0.6 - Partly cloudy - - - - -
19/09:30am 15.1 NNE 7 8 1012.6 - 0.4 - Partly cloudy - - - - -
19/09:00am 15.0 NNE 6 8 1013.3 - 8.4 Recent precip. Cloudy - - - - -
19/08:30am 15.2 NNE 5 7 1013.3 - 8.2 - Partly cloudy - - - - -
19/08:00am 15.1 S 5 8 1013.5 - 7.6 - Partly cloudy - - - - -
19/07:30am 14.7 S 5 9 1012.5 - 6.8 - Partly cloudy - - - - -
19/07:00am 14.5 SSW 8 11 1013.1 - 5.4 - Partly cloudy - - - - -
19/06:30am 14.3 SW 9 11 1012.5 - 3.8 - Partly cloudy - - - - -
19/06:00am 14.6 W 11 16 1013.0 - 0.4 Rain Cloudy - - - - -
19/05:30am 15.7 WNW 12 15 1011.9 - 0.0 - Partly cloudy - - - - -
19/05:00am 15.8 NNW 14 18 1011.8 - 0.0 - Cloudy - - - - -
19/04:30am 16.9 NNW 16 20 1011.7 - 0.0 - Cloudy - - - - -
19/04:00am 16.6 NNW 16 22 1012.0 - 0.0 - Cloudy - - - - -
19/03:58am 16.4 NNW 16 24 1012.0 - 0.0 - Cloudy - - - - -
19/03:51am 16.6 NW 21 31 1012.1 - 0.0 - Cloudy - - - - -
19/03:39am 16.7 NW 22 30 1012.9 - 0.0 - Cloudy - - - - -
19/03:35am 17.9 NNW 23 34 1011.1 - 0.0 - Cloudy - - - - -
19/03:32am 17.9 N 26 35 1011.8 - 0.0 - Cloudy - - - - -
19/03:30am 20.2 N 28 35 1011.6 - 0.0 - Cloudy - - - - -
19/03:00am 19.7 N 26 32 1011.1 - 0.0 - Cloudy - - - - -
19/02:30am 19.6 N 28 33 1011.5 - 0.0 - Cloudy - - - - -
19/02:00am 19.6 N 27 32 1012.2 - 0.0 - Cloudy - - - - -
19/01:30am 20.3 N 26 31 1012.7 - 0.0 - Cloudy - - - - -
19/01:00am 20.3 NNE 23 29 1013.0 - 0.0 - Cloudy - - - - -
19/12:30am 18.6 NE 15 22 1013.7 - 0.0 - Cloudy - - - - -
19/12:00am 17.9 NE 16 20 1014.4 - 0.0 - Partly cloudy - - - - -
 
Date/Time
EDT
Temp
°C
Wind Pressure Rain since
9am
mm
Weather Cloud Vis
km
Sea
Height
m
Swell
Dir  Spd
kts
Gust
kts
hPa Trend Height
m
Period
s
Dir
18/11:30pm 15.4 ENE 16 19 1014.8 - 0.0 - Partly cloudy - - - - -
18/11:00pm 15.4 ENE 17 20 1015.1 - 0.0 - Partly cloudy - - - - -
18/10:30pm 15.6 ENE 19 22 1015.6 - 0.0 - Partly cloudy - - - - -
18/10:00pm 15.4 ENE 17 20 1016.0 - 0.0 - Partly cloudy - - - - -
18/09:30pm 15.3 ENE 18 21 1016.5 - 0.0 - Partly cloudy - - - - -
18/09:00pm 15.7 ENE 17 21 1016.6 - 0.0 - Mostly cloudy - - - - -
18/08:30pm 15.9 ENE 18 21 1016.6 - 0.0 - Cloudy - - - - -
18/08:00pm 15.9 ENE 17 20 1016.5 - 0.0 - Partly cloudy - - - - -
18/07:30pm 15.8 E 20 23 1016.4 - 0.0 - Partly cloudy - - - - -
18/07:00pm 16.1 ENE 19 23 1016.4 - 0.0 - Cloudy - - - - -
18/06:30pm 16.2 ENE 19 23 1016.5 - 0.0 - Partly cloudy - - - - -
18/06:00pm 16.4 ENE 20 24 1016.4 - 0.0 - - - - - - -
18/05:30pm 17.1 ENE 21 25 1016.4 - 0.0 - - - - - - -
18/05:00pm 17.9 ENE 21 24 1016.5 - 0.0 - - - - - - -
18/04:30pm 18.8 ENE 20 24 1016.8 - 0.0 - - - - - - -
18/04:00pm 18.9 ENE 20 24 1017.2 - 0.0 - - - - - - -
18/03:30pm 18.6 ENE 20 23 1017.6 - 0.0 - - - - - - -
18/03:00pm 18.4 ENE 20 23 1017.9 - 0.0 - - - - - - -
18/02:30pm 18.0 ENE 20 24 1018.3 - 0.0 - - - - - - -
18/02:00pm 18.3 NE 20 25 1018.7 - 0.0 - - - - - - -
18/01:30pm 18.3 ENE 21 25 1019.0 - 0.0 - - - - - - -
18/01:00pm 18.3 ENE 21 26 1019.2 - 0.0 - - - - - - -
18/12:30pm 18.5 ENE 21 25 1019.7 - 0.0 - - - - - - -
18/12:00pm 17.9 ENE 21 25 1019.9 - 0.0 - - - - - - -
18/11:30am 17.8 ENE 22 25 1020.2 - 0.0 - - - - - - -
18/11:00am 17.4 ENE 21 24 1020.4 - 0.0 - - - - - - -
18/10:30am 17.2 ENE 21 25 1020.6 - 0.0 - - - - - - -
18/10:00am 16.8 ENE 20 26 1021.0 - 0.0 - - - - - - -
18/09:30am 16.6 ENE 20 25 1021.0 - 0.0 - - - - - - -
18/09:00am 15.8 ENE 19 22 1021.2 - 0.4 - - - - - - -
18/08:30am 15.3 ENE 18 22 1021.2 - 0.4 - - - - - - -
18/08:00am 14.6 E 19 22 1020.9 - 0.4 - - - - - - -
18/07:30am 13.9 E 16 20 1020.9 - 0.4 - - - - - - -
18/07:00am 13.8 E 19 22 1020.4 - 0.4 - - - - - - -
18/06:30am 13.0 E 19 21 1020.1 - 0.2 - - - - - - -
18/06:00am 13.0 E 19 21 1019.8 - 0.2 - - - - - - -
18/05:30am 13.1 E 18 21 1019.6 - 0.2 - - - - - - -
18/05:00am 13.5 ENE 20 23 1019.5 - 0.2 - - - - - - -
18/04:30am 13.6 E 17 20 1019.5 - 0.2 - - - - - - -
18/04:00am 13.6 ENE 19 23 1019.4 - 0.2 - - - - - - -
18/03:30am 13.5 E 19 22 1019.6 - 0.2 - - - - - - -
18/03:00am 13.4 E 19 22 1019.9 - 0.2 - - - - - - -
18/02:30am 13.7 ENE 19 24 1019.9 - 0.2 - - - - - - -
18/02:00am 13.5 ENE 20 25 1020.0 - 0.2 - - - - - - -
18/01:30am 13.4 ENE 22 25 1020.4 - 0.2 - - - - - - -
18/01:00am 13.5 ENE 19 24 1020.9 - 0.0 - - - - - - -
18/12:30am 13.5 E 17 20 1021.3 - 0.0 - - - - - - -
18/12:00am 13.3 E 19 22 1021.1 - 0.0 - - - - - - -
 
Date/Time
EDT
Temp
°C
Wind Pressure Rain since
9am
mm
Weather Cloud Vis
km
Sea
Height
m
Swell
Dir  Spd
kts
Gust
kts
hPa Trend Height
m
Period
s
Dir
17/11:30pm 13.3 ENE 19 22 1021.4 - 0.0 - - - - - - -
17/11:00pm 13.3 ENE 18 21 1021.8 - 0.0 - - - - - - -
17/10:30pm 13.2 E 18 21 1022.1 - 0.0 - - - - - - -
17/10:00pm 13.1 E 17 19 1022.3 - 0.0 - - - - - - -
17/09:30pm 12.9 ENE 17 19 1022.3 - 0.0 - - - - - - -
17/09:00pm 13.0 ENE 18 21 1022.2 - 0.0 - - - - - - -
17/08:30pm 13.0 E 17 19 1022.1 - 0.0 - - - - - - -
17/08:00pm 13.1 E 18 21 1021.9 - 0.0 - - - - - - -
17/07:30pm 13.1 E 17 20 1021.7 - 0.0 - - - - - - -
17/07:00pm 13.3 E 16 19 1021.7 - 0.0 - - - - - - -
17/06:30pm 14.1 ENE 18 21 1021.3 - 0.0 - - - - - - -
17/06:00pm 14.5 E 19 21 1021.1 - 0.0 - - - - - - -
17/05:30pm 14.5 ENE 19 22 1021.2 - 0.0 - - - - - - -
17/05:10pm 15.0 ENE 19 23 1021.2 - 0.0 - Partly cloudy - - - - -
17/05:00pm 14.7 ENE 19 22 1021.3 - 0.0 - Partly cloudy - - - - -
17/04:30pm 14.6 ENE 20 23 1021.4 - 0.0 - Partly cloudy - - - - -
17/04:24pm 14.1 ENE 21 24 1021.4 - 0.0 - Partly cloudy - - - - -
17/04:00pm 15.0 ENE 21 24 1021.5 - 0.0 - - - - - - -
17/03:30pm 15.3 ENE 20 23 1021.7 - 0.0 - - - - - - -
17/03:00pm 15.4 ENE 20 24 1022.1 - 0.0 - - - - - - -
17/02:51pm 15.5 ENE 20 24 1022.2 - 0.0 - Partly cloudy - - - - -
17/02:30pm 14.5 E 20 23 1022.4 - 0.0 - Partly cloudy - - - - -

Other Formats:

Comma delimited format used in spreadsheet applications
http://www.bom.gov.au/fwo/IDV60701/IDV60701.95954.axf

JavaScript Object Notation format (JSON) in row-major order
http://www.bom.gov.au/fwo/IDV60701/IDV60701.95954.json